createdAt,value
2023-03-24T00:03:10.896Z,99769.22
2023-03-24T00:08:17.136Z,99708.31
2023-03-24T00:13:20.346Z,99747.25
2023-03-24T00:18:25.936Z,99750.75
2023-03-24T00:23:32.631Z,99738.44
2023-03-24T00:28:37.644Z,99722.69
2023-03-24T00:33:41.354Z,99717.41
2023-03-24T00:38:47.307Z,99729.75
2023-03-24T00:43:53.975Z,99728.88
2023-03-24T00:49:02.733Z,99708.72
2023-03-24T00:54:09.427Z,99690.34
2023-03-24T00:59:14.061Z,99687.72
2023-03-24T01:04:17.292Z,99682.44
2023-03-24T01:09:22.063Z,99681.59
2023-03-24T01:14:25.332Z,99686.00
2023-03-24T01:19:29.284Z,99672.84
2023-03-24T01:24:33.858Z,99665.81
2023-03-24T01:29:37.359Z,99665.91
2023-03-24T01:34:40.603Z,99648.38
2023-03-24T01:39:45.130Z,99653.66
2023-03-24T01:44:54.292Z,99646.53
2023-03-24T01:50:03.119Z,99647.53
2023-03-24T01:55:12.819Z,99647.59
2023-03-24T02:00:19.556Z,99631.81
2023-03-24T02:05:46.322Z,99646.75
2023-03-24T02:10:56.284Z,99647.66
2023-03-24T02:16:15.099Z,99738.00
2023-03-24T02:21:56.650Z,99736.00
2023-03-24T02:27:15.818Z,99747.00
2023-03-24T02:33:09.781Z,99765.16
2023-03-24T02:38:29.063Z,99765.84
2023-03-24T02:43:45.896Z,99764.00
2023-03-24T02:49:02.964Z,99775.25
2023-03-24T02:54:12.140Z,99797.03
2023-03-24T02:59:23.316Z,99796.09
2023-03-24T03:04:34.477Z,99810.78
2023-03-24T03:09:41.218Z,99832.47
2023-03-24T03:14:51.847Z,99832.44
2023-03-24T03:19:58.154Z,99835.81
2023-03-24T03:25:03.913Z,99842.59
2023-03-24T03:30:14.678Z,99851.28
2023-03-24T03:35:23.926Z,99881.72
2023-03-24T03:40:32.483Z,99885.13
2023-03-24T03:45:45.071Z,99901.66
2023-03-24T03:50:57.421Z,99892.09
2023-03-24T03:56:10.554Z,99907.75
2023-03-24T04:01:26.620Z,99893.66
2023-03-24T04:07:08.314Z,99901.91
2023-03-24T04:12:35.846Z,99916.56
2023-03-24T04:18:20.906Z,99913.44
2023-03-24T04:23:42.104Z,99936.94
2023-03-24T04:28:58.663Z,99935.81
2023-03-24T04:34:09.945Z,99941.91
2023-03-24T04:39:17.843Z,99947.81
2023-03-24T04:44:27.908Z,99949.31
2023-03-24T04:49:53.227Z,99950.03
2023-03-24T04:54:57.466Z,99950.78
2023-03-24T05:00:02.918Z,99976.34
2023-03-24T05:05:09.971Z,99972.91
2023-03-24T05:10:21.822Z,99982.53
2023-03-24T05:15:30.814Z,99980.66
2023-03-24T05:20:55.142Z,99987.34
2023-03-24T05:25:58.674Z,99998.66
2023-03-24T05:31:05.101Z,99996.72
2023-03-24T05:36:22.510Z,100008.06
2023-03-24T05:41:34.644Z,100012.56
2023-03-24T05:46:38.207Z,100023.44
2023-03-24T05:51:43.100Z,100029.97
2023-03-24T05:56:46.789Z,100020.50
2023-03-24T06:02:09.491Z,100027.56
2023-03-24T06:07:26.607Z,100037.34
2023-03-24T06:12:31.624Z,100056.94
2023-03-24T06:17:38.502Z,100039.38
2023-03-24T06:22:54.493Z,100054.78
2023-03-24T06:28:06.124Z,100050.53
2023-03-24T06:33:11.422Z,100061.19
2023-03-24T06:38:16.764Z,100072.69
2023-03-24T06:43:21.323Z,100071.22
2023-03-24T06:48:26.445Z,100072.94
2023-03-24T06:53:38.866Z,100088.78
2023-03-24T06:58:42.101Z,100083.13
2023-03-24T07:03:52.009Z,100096.72
2023-03-24T07:09:15.175Z,100097.66
2023-03-24T07:14:18.381Z,100109.25
2023-03-24T07:19:23.213Z,100114.75
2023-03-24T07:24:39.521Z,100137.25
2023-03-24T07:30:03.433Z,100138.59
2023-03-24T07:35:17.022Z,100136.03
2023-03-24T07:40:22.272Z,100139.69
2023-03-24T07:45:26.103Z,100150.38
2023-03-24T07:50:30.066Z,100136.88
2023-03-24T07:55:38.060Z,100143.03
2023-03-24T08:00:55.581Z,100145.44
2023-03-24T08:06:12.124Z,100149.50
2023-03-24T08:11:20.983Z,100142.38
2023-03-24T08:16:24.921Z,100149.88
2023-03-24T08:21:28.104Z,100158.06
2023-03-24T08:26:37.988Z,100171.69
2023-03-24T08:31:41.206Z,100190.41
2023-03-24T08:36:44.210Z,100175.50
2023-03-24T08:41:50.319Z,100180.34
2023-03-24T08:47:02.086Z,100202.56
2023-03-24T08:52:05.726Z,100203.75
2023-03-24T08:57:10.208Z,100212.16
2023-03-24T09:02:16.478Z,100216.97
2023-03-24T09:07:19.531Z,100228.47
2023-03-24T09:12:24.066Z,100230.00
2023-03-24T09:17:27.629Z,100236.66
2023-03-24T09:22:30.856Z,100252.34
2023-03-24T09:27:35.357Z,100252.69
2023-03-24T09:32:38.460Z,100245.09
2023-03-24T09:37:43.364Z,100248.50
2023-03-24T09:42:56.620Z,100224.72
2023-03-24T09:48:04.687Z,100249.38
2023-03-24T09:53:16.858Z,100255.25
2023-03-24T09:58:21.813Z,100252.56
2023-03-24T10:03:25.365Z,100245.56
2023-03-24T10:08:33.696Z,100259.50
2023-03-24T10:13:55.381Z,100261.59
2023-03-24T10:19:04.542Z,100251.72
2023-03-24T10:24:15.618Z,100266.69
2023-03-24T10:29:26.033Z,100277.94
2023-03-24T10:34:35.167Z,100280.97
2023-03-24T10:39:44.898Z,100288.81
2023-03-24T10:44:54.579Z,100277.50
2023-03-24T10:50:14.307Z,100266.19
2023-03-24T10:55:23.626Z,100271.84
2023-03-24T11:00:31.734Z,100267.16
2023-03-24T11:05:37.983Z,100275.63
2023-03-24T11:10:41.570Z,100273.91
2023-03-24T11:15:55.412Z,100264.69
2023-03-24T11:21:04.254Z,100282.41
2023-03-24T11:26:11.170Z,100288.97
2023-03-24T11:36:47.313Z,100283.78
2023-03-24T11:42:02.504Z,100282.94
2023-03-24T11:47:13.575Z,100270.94
2023-03-24T11:52:23.757Z,100263.75
2023-03-24T11:57:48.971Z,100268.84
2023-03-24T12:03:25.020Z,100269.47
2023-03-24T12:08:40.042Z,100271.78
2023-03-24T12:13:45.518Z,100249.00
2023-03-24T12:19:23.074Z,100260.53
2023-03-24T12:24:41.677Z,100264.25
2023-03-24T12:30:00.817Z,100291.25
2023-03-24T12:35:45.856Z,100295.47
2023-03-24T12:41:05.395Z,100270.78
2023-03-24T12:46:29.561Z,100256.16
2023-03-24T12:51:48.281Z,100249.22
2023-03-24T12:56:59.277Z,100265.22
2023-03-24T13:02:10.962Z,100254.78
2023-03-24T13:07:20.072Z,100235.00
2023-03-24T13:12:25.977Z,100262.06
2023-03-24T13:17:34.362Z,100264.94
2023-03-24T13:22:39.515Z,100263.88
2023-03-24T13:27:51.016Z,100261.50
2023-03-24T13:32:56.670Z,100271.97
2023-03-24T13:38:07.649Z,100299.41
2023-03-24T13:43:15.489Z,100299.91
2023-03-24T13:48:34.932Z,100312.63
2023-03-24T13:53:45.010Z,100298.50
2023-03-24T13:59:04.661Z,100270.50
2023-03-24T14:04:45.498Z,100269.50
2023-03-24T14:10:01.136Z,100239.81
2023-03-24T14:15:15.762Z,100227.94
2023-03-24T14:20:29.465Z,100229.25
2023-03-24T14:25:45.710Z,100227.38
2023-03-24T14:31:13.491Z,100217.25
2023-03-24T14:36:23.283Z,100216.75
2023-03-24T14:41:32.016Z,100222.31
2023-03-24T14:46:38.615Z,100215.84
2023-03-24T14:51:44.816Z,100227.59
2023-03-24T14:56:54.102Z,100221.75
2023-03-24T15:02:05.428Z,100228.91
2023-03-24T15:07:14.950Z,100215.69
2023-03-24T15:12:21.172Z,100219.22
2023-03-24T15:23:10.095Z,100204.84
2023-03-24T15:28:21.635Z,100200.91
2023-03-24T15:33:26.171Z,100192.19
2023-03-24T15:38:30.892Z,100196.59
2023-03-24T15:43:43.360Z,100187.69
2023-03-24T15:48:48.711Z,100189.22
2023-03-24T15:53:59.228Z,100175.13
2023-03-24T15:59:16.308Z,100165.56
2023-03-24T16:04:23.420Z,100168.81
2023-03-24T16:09:28.129Z,100159.97
2023-03-24T16:14:33.320Z,100157.50
2023-03-24T16:19:37.893Z,100158.53
2023-03-24T16:24:41.066Z,100138.44
2023-03-24T16:29:45.478Z,100155.28
2023-03-24T16:34:51.326Z,100132.38
2023-03-24T16:39:54.828Z,100149.06
2023-03-24T16:44:59.484Z,100163.78
2023-03-24T16:50:02.642Z,100155.81
2023-03-24T16:55:06.725Z,100168.75
2023-03-24T17:00:13.063Z,100151.63
2023-03-24T17:05:24.391Z,100168.31
2023-03-24T17:10:28.680Z,100169.22
2023-03-24T17:15:36.565Z,100158.63
2023-03-24T17:20:40.757Z,100161.22
2023-03-24T17:25:43.788Z,100152.34
2023-03-24T17:30:50.530Z,100145.09
2023-03-24T17:35:55.080Z,100152.03
2023-03-24T17:41:02.401Z,100143.84
2023-03-24T17:46:07.067Z,100145.13
2023-03-24T17:51:10.169Z,100148.22
2023-03-24T17:56:13.620Z,100162.06
2023-03-24T18:01:21.341Z,100152.91
2023-03-24T18:06:24.532Z,100157.00
2023-03-24T18:11:28.032Z,100149.00
2023-03-24T18:16:35.558Z,100161.22
2023-03-24T18:21:39.934Z,100160.97
2023-03-24T18:26:43.305Z,100166.00
2023-03-24T18:31:47.847Z,100166.69
2023-03-24T18:36:53.665Z,100174.41
2023-03-24T18:41:59.626Z,100180.34
2023-03-24T18:47:04.446Z,100178.28
2023-03-24T18:52:09.614Z,100178.91
2023-03-24T18:57:13.312Z,100176.06
2023-03-24T19:02:18.277Z,100177.69
2023-03-24T19:07:24.722Z,100187.06
2023-03-24T19:12:28.142Z,100182.72
2023-03-24T19:17:33.321Z,100181.25
2023-03-24T19:22:36.700Z,100176.94
2023-03-24T19:27:39.823Z,100178.28
2023-03-24T19:32:44.425Z,100172.41
2023-03-24T19:37:53.782Z,100170.50
2023-03-24T19:42:56.904Z,100167.53
2023-03-24T19:48:03.455Z,100169.16
2023-03-24T19:53:06.527Z,100163.66
2023-03-24T19:58:09.964Z,100159.22
2023-03-24T20:03:14.648Z,100159.28
2023-03-24T20:08:19.315Z,100161.72
2023-03-24T20:13:24.160Z,100162.53
2023-03-24T20:18:28.699Z,100147.53
2023-03-24T20:23:32.228Z,100152.78
2023-03-24T20:28:35.486Z,100152.13
2023-03-24T20:33:40.412Z,100150.22
2023-03-24T20:38:43.915Z,100148.34
2023-03-24T20:43:47.149Z,100154.75
2023-03-24T20:48:53.752Z,100124.53
2023-03-24T20:53:57.020Z,100153.75
2023-03-24T20:59:01.122Z,100143.25
2023-03-24T21:04:09.406Z,100145.78
2023-03-24T21:09:13.555Z,100151.97
2023-03-24T21:14:16.638Z,100164.31
2023-03-24T21:19:22.932Z,100161.91
2023-03-24T21:24:28.658Z,100141.00
2023-03-24T21:29:31.925Z,100149.16
2023-03-24T21:34:36.790Z,100144.78
2023-03-24T21:39:39.932Z,100154.47
2023-03-24T21:44:43.002Z,100143.16
2023-03-24T21:49:52.560Z,100142.28
2023-03-24T21:54:58.152Z,100154.56
2023-03-24T22:00:02.028Z,100151.84
2023-03-24T22:05:17.230Z,100147.34
2023-03-24T22:10:23.046Z,100147.34
2023-03-24T22:15:26.240Z,100163.09
2023-03-24T22:20:32.001Z,100163.88
2023-03-24T22:25:35.541Z,100161.09
2023-03-24T22:30:41.986Z,100168.06
2023-03-24T22:35:47.856Z,100175.94
2023-03-24T22:40:52.023Z,100165.25
2023-03-24T22:45:55.560Z,100161.72
2023-03-24T22:51:00.069Z,100151.84
2023-03-24T22:56:03.674Z,100167.63
2023-03-24T23:01:07.921Z,100161.38
2023-03-24T23:06:13.356Z,100172.75
2023-03-24T23:11:16.817Z,100172.69
2023-03-24T23:16:21.438Z,100174.31
2023-03-24T23:21:26.222Z,100164.41
2023-03-24T23:26:30.336Z,100154.75
2023-03-24T23:31:33.531Z,100169.66
2023-03-24T23:36:39.832Z,100169.78
2023-03-24T23:41:43.151Z,100167.84
2023-03-24T23:46:46.311Z,100179.09
2023-03-24T23:51:51.502Z,100185.00
2023-03-24T23:56:54.979Z,100182.13
